Time;durP1;ratioP1;P1;durP2;ratioP2;P2;SDS_P1;SDS_P2;PMS_P1;PMS_P2;Temp;Humidity;BMP_temperature;BMP_pressure;BME280_temperature;BME280_humidity;BME280_pressure;Samples;Min_cycle;Max_cycle;Signal;HPM_P1;HPM_P2
2022/03/09 00:02:16;;;;;;;17.02;13.63;;;;;;;;;;5060977;28;20028;-67
2022/03/09 00:04:41;;;;;;;18.80;14.52;;;;;;;;;;5061702;28;20071;-68
2022/03/09 00:07:06;;;;;;;19.45;13.75;;;;;;;;;;5059961;28;20024;-67
2022/03/09 00:09:32;;;;;;;19.55;14.27;;;;;;;;;;5061013;28;20093;-68
2022/03/09 00:12:00;;;;;;;21.40;15.63;;;;;;;;;;5058544;28;20106;-68
2022/03/09 00:14:25;;;;;;;21.40;15.15;;;;;;;;;;5059997;28;20509;-69
2022/03/09 00:16:51;;;;;;;18.52;13.52;;;;;;;;;;5063127;28;20116;-68
2022/03/09 00:19:16;;;;;;;20.98;15.30;;;;;;;;;;5066751;28;20028;-68
2022/03/09 00:21:41;;;;;;;19.85;15.52;;;;;;;;;;5064633;28;20109;-68
2022/03/09 00:24:07;;;;;;;18.92;14.63;;;;;;;;;;5061754;28;20051;-68
2022/03/09 00:26:32;;;;;;;20.17;14.25;;;;;;;;;;5058884;28;20029;-69
2022/03/09 00:29:01;;;;;;;20.20;14.45;;;;;;;;;;5044262;28;20028;-67
2022/03/09 00:31:26;;;;;;;21.05;14.85;;;;;;;;;;5061984;28;20021;-68
2022/03/09 00:33:51;;;;;;;17.90;13.88;;;;;;;;;;5060355;28;20032;-68
2022/03/09 00:36:17;;;;;;;19.48;14.07;;;;;;;;;;5061398;28;20139;-68
2022/03/09 00:38:42;;;;;;;19.40;13.93;;;;;;;;;;5062246;28;20546;-68
2022/03/09 00:41:07;;;;;;;20.27;14.25;;;;;;;;;;5061565;28;20032;-68
2022/03/09 00:43:33;;;;;;;19.00;14.43;;;;;;;;;;5059861;28;20451;-68
2022/03/09 00:46:02;;;;;;;19.40;13.50;;;;;;;;;;5062288;28;20475;-68
2022/03/09 00:48:27;;;;;;;17.60;14.00;;;;;;;;;;5060962;28;20051;-68
2022/03/09 00:50:53;;;;;;;18.30;13.85;;;;;;;;;;5063026;28;20402;-67
2022/03/09 00:53:18;;;;;;;18.23;13.52;;;;;;;;;;5060771;28;20028;-69
2022/03/09 00:55:43;;;;;;;19.48;14.48;;;;;;;;;;5063440;28;20025;-69
2022/03/09 00:58:08;;;;;;;18.83;15.10;;;;;;;;;;5057711;28;20441;-68
2022/03/09 01:00:34;;;;;;;18.80;13.98;;;;;;;;;;5061372;28;20021;-69
2022/03/09 01:03:04;;;;;;;19.80;14.85;;;;;;;;;;5061171;28;20120;-68
2022/03/09 01:05:29;;;;;;;18.77;14.38;;;;;;;;;;5060679;28;20021;-68
2022/03/09 01:07:55;;;;;;;19.13;14.38;;;;;;;;;;5060711;28;20355;-67
2022/03/09 01:10:20;;;;;;;19.38;14.13;;;;;;;;;;5058894;28;20047;-68
2022/03/09 01:12:46;;;;;;;18.38;13.95;;;;;;;;;;5048898;28;20269;-69
2022/03/09 01:15:11;;;;;;;19.42;14.32;;;;;;;;;;5040207;28;20400;-68
2022/03/09 01:17:36;;;;;;;20.42;14.60;;;;;;;;;;5041716;28;20480;-67
2022/03/09 01:20:03;;;;;;;20.02;14.90;;;;;;;;;;5043795;28;20025;-68
2022/03/09 01:22:28;;;;;;;18.60;13.70;;;;;;;;;;5043500;28;20025;-68
2022/03/09 01:24:53;;;;;;;20.58;14.30;;;;;;;;;;5046382;28;20033;-69
2022/03/09 01:27:18;;;;;;;19.77;13.55;;;;;;;;;;5041144;28;20025;-68
2022/03/09 01:29:44;;;;;;;19.23;14.38;;;;;;;;;;5044541;28;20028;-68
2022/03/09 01:32:09;;;;;;;20.48;14.32;;;;;;;;;;5059238;28;20052;-67
2022/03/09 01:34:34;;;;;;;20.23;14.32;;;;;;;;;;5063892;28;20456;-68
2022/03/09 01:36:59;;;;;;;20.35;13.95;;;;;;;;;;5064461;28;20043;-68
2022/03/09 01:39:25;;;;;;;24.15;15.32;;;;;;;;;;5063520;28;20093;-67
2022/03/09 01:41:50;;;;;;;20.30;15.85;;;;;;;;;;5060906;28;20289;-67
2022/03/09 01:44:20;;;;;;;19.98;14.23;;;;;;;;;;5061659;28;20109;-67
2022/03/09 01:46:47;;;;;;;18.35;13.80;;;;;;;;;;5064352;28;20035;-68
2022/03/09 01:49:12;;;;;;;17.88;14.05;;;;;;;;;;5042870;28;20105;-67
2022/03/09 01:51:39;;;;;;;21.42;14.50;;;;;;;;;;5046182;28;20112;-68
2022/03/09 01:54:05;;;;;;;17.55;13.70;;;;;;;;;;5064548;28;20016;-68
2022/03/09 01:56:30;;;;;;;18.00;13.73;;;;;;;;;;5060617;28;20392;-67
2022/03/09 01:58:56;;;;;;;20.50;13.88;;;;;;;;;;5063921;28;20031;-68
2022/03/09 02:01:22;;;;;;;18.77;14.70;;;;;;;;;;5063840;28;20024;-68
2022/03/09 02:03:48;;;;;;;18.70;13.85;;;;;;;;;;5063582;28;20044;-68
2022/03/09 02:06:13;;;;;;;18.50;13.38;;;;;;;;;;5064362;28;20031;-68
2022/03/09 02:11:23;;;;;;;20.40;13.88;;;;;;;;;;5063746;28;20032;-68
2022/03/09 02:13:49;;;;;;;19.52;13.88;;;;;;;;;;5060140;28;20034;-68
2022/03/09 02:16:15;;;;;;;21.45;14.35;;;;;;;;;;5063576;28;20099;-68
2022/03/09 02:18:41;;;;;;;19.73;15.30;;;;;;;;;;5047288;28;20025;-68
2022/03/09 02:21:08;;;;;;;18.48;14.05;;;;;;;;;;5062591;28;20917;-68
2022/03/09 02:23:34;;;;;;;19.85;13.88;;;;;;;;;;5064182;28;20085;-68
2022/03/09 02:25:59;;;;;;;19.75;14.70;;;;;;;;;;5064700;28;20027;-68
2022/03/09 02:28:24;;;;;;;18.70;14.75;;;;;;;;;;5055097;28;20425;-67
2022/03/09 02:30:53;;;;;;;19.73;13.77;;;;;;;;;;5043779;28;20127;-67
2022/03/09 02:33:19;;;;;;;21.20;14.27;;;;;;;;;;5042577;28;20415;-67
2022/03/09 02:35:44;;;;;;;20.02;14.52;;;;;;;;;;5047857;28;20036;-67
2022/03/09 02:38:10;;;;;;;18.30;14.35;;;;;;;;;;5040740;28;20269;-68
2022/03/09 02:40:36;;;;;;;21.00;14.70;;;;;;;;;;5041677;28;20067;-68
2022/03/09 02:43:02;;;;;;;18.08;14.02;;;;;;;;;;5039015;28;20040;-67
2022/03/09 02:45:28;;;;;;;21.15;14.70;;;;;;;;;;5039696;28;20375;-67
2022/03/09 02:47:53;;;;;;;18.73;14.20;;;;;;;;;;5042671;28;20059;-67
2022/03/09 02:50:18;;;;;;;19.13;13.55;;;;;;;;;;5039776;28;20036;-67
2022/03/09 02:52:45;;;;;;;17.65;13.82;;;;;;;;;;5042345;28;20132;-68
2022/03/09 02:55:11;;;;;;;19.00;13.93;;;;;;;;;;5042573;28;20039;-67
2022/03/09 02:57:37;;;;;;;18.35;13.75;;;;;;;;;;5038805;28;20148;-67
2022/03/09 03:00:03;;;;;;;18.63;13.95;;;;;;;;;;5041270;28;20132;-68
2022/03/09 03:02:28;;;;;;;20.15;14.90;;;;;;;;;;5042293;28;20036;-68
2022/03/09 03:04:53;;;;;;;18.30;13.93;;;;;;;;;;5041615;28;20062;-68
2022/03/09 03:07:18;;;;;;;19.35;14.73;;;;;;;;;;5040322;28;20032;-68
2022/03/09 03:09:44;;;;;;;17.83;13.75;;;;;;;;;;5043370;28;20025;-68
2022/03/09 03:12:10;;;;;;;21.80;14.98;;;;;;;;;;5040846;28;20032;-68
2022/03/09 03:14:35;;;;;;;19.70;13.45;;;;;;;;;;5023717;28;20037;-68
2022/03/09 03:17:00;;;;;;;18.45;14.13;;;;;;;;;;5041995;28;20017;-68
2022/03/09 03:19:26;;;;;;;19.55;14.52;;;;;;;;;;5040402;28;20025;-68
2022/03/09 03:21:51;;;;;;;17.52;13.75;;;;;;;;;;5041949;28;20029;-68
2022/03/09 03:24:16;;;;;;;20.55;14.07;;;;;;;;;;5040497;28;20055;-68
2022/03/09 03:26:41;;;;;;;19.83;14.43;;;;;;;;;;5041983;28;20099;-68
2022/03/09 03:29:06;;;;;;;19.63;13.40;;;;;;;;;;5041797;28;20112;-68
2022/03/09 03:31:32;;;;;;;21.42;15.68;;;;;;;;;;5040889;28;20009;-68
2022/03/09 03:33:57;;;;;;;20.50;14.68;;;;;;;;;;5041612;28;20052;-68
2022/03/09 03:36:23;;;;;;;18.58;14.23;;;;;;;;;;5039993;28;20499;-68
2022/03/09 03:38:48;;;;;;;20.48;14.45;;;;;;;;;;5043947;28;20020;-68
2022/03/09 03:41:14;;;;;;;19.00;14.30;;;;;;;;;;5041697;28;20112;-68
2022/03/09 03:43:39;;;;;;;21.85;13.93;;;;;;;;;;5035614;28;20056;-68
2022/03/09 03:46:05;;;;;;;19.73;14.30;;;;;;;;;;5043011;28;20028;-68
2022/03/09 03:48:30;;;;;;;17.60;13.50;;;;;;;;;;5041579;28;20029;-68
2022/03/09 03:50:55;;;;;;;19.00;14.65;;;;;;;;;;5042722;28;20024;-67
2022/03/09 03:53:20;;;;;;;19.83;13.80;;;;;;;;;;5040588;28;20488;-67
2022/03/09 03:55:46;;;;;;;20.30;13.25;;;;;;;;;;5042204;28;20533;-68
2022/03/09 03:58:11;;;;;;;20.13;14.27;;;;;;;;;;5052635;28;20024;-68
2022/03/09 04:00:36;;;;;;;18.25;13.63;;;;;;;;;;5062546;28;20051;-67
2022/03/09 04:03:02;;;;;;;20.35;15.10;;;;;;;;;;5061608;28;20024;-68
2022/03/09 04:05:27;;;;;;;20.13;14.30;;;;;;;;;;5061603;28;20051;-68
2022/03/09 04:07:53;;;;;;;18.85;14.68;;;;;;;;;;5063209;28;20482;-68
2022/03/09 04:10:19;;;;;;;19.00;14.00;;;;;;;;;;5060493;28;20039;-68
2022/03/09 04:12:44;;;;;;;19.60;14.43;;;;;;;;;;5044136;28;20033;-67
2022/03/09 04:15:09;;;;;;;18.98;14.02;;;;;;;;;;5058407;28;20286;-67
2022/03/09 04:17:42;;;;;;;21.45;14.88;;;;;;;;;;5060148;28;20113;-67
2022/03/09 04:20:07;;;;;;;18.63;14.05;;;;;;;;;;5062888;28;20089;-68
2022/03/09 04:22:32;;;;;;;17.63;13.43;;;;;;;;;;5062156;28;20043;-67
2022/03/09 04:24:58;;;;;;;18.98;14.20;;;;;;;;;;5054924;28;20121;-69
2022/03/09 04:27:23;;;;;;;22.80;15.05;;;;;;;;;;5041296;28;20112;-68
2022/03/09 04:29:48;;;;;;;19.13;14.13;;;;;;;;;;5041710;28;21312;-67
2022/03/09 04:32:14;;;;;;;19.38;14.43;;;;;;;;;;5043594;28;20108;-67
2022/03/09 04:34:39;;;;;;;19.05;14.73;;;;;;;;;;5040665;28;20348;-67
2022/03/09 04:37:04;;;;;;;20.00;13.85;;;;;;;;;;5043110;28;20120;-67
2022/03/09 04:39:29;;;;;;;21.17;14.63;;;;;;;;;;5042048;28;20194;-67
2022/03/09 04:41:55;;;;;;;20.23;14.02;;;;;;;;;;5040380;28;20219;-67
2022/03/09 04:44:21;;;;;;;21.98;14.57;;;;;;;;;;5040724;28;20051;-68
2022/03/09 04:46:46;;;;;;;19.02;13.88;;;;;;;;;;5041079;28;20021;-67
2022/03/09 04:49:11;;;;;;;21.60;14.52;;;;;;;;;;5042905;28;20036;-67
2022/03/09 04:51:37;;;;;;;21.30;14.55;;;;;;;;;;5040762;28;20033;-67
2022/03/09 04:54:02;;;;;;;19.45;13.48;;;;;;;;;;5041567;28;20032;-68
2022/03/09 04:56:29;;;;;;;22.75;15.50;;;;;;;;;;5044025;28;20060;-68
2022/03/09 04:58:54;;;;;;;19.92;14.85;;;;;;;;;;5027798;28;20060;-67
2022/03/09 05:01:20;;;;;;;21.92;15.38;;;;;;;;;;5046787;28;20016;-68
2022/03/09 05:03:46;;;;;;;18.40;13.75;;;;;;;;;;5028732;28;20060;-68
2022/03/09 05:06:13;;;;;;;19.60;15.18;;;;;;;;;;5045311;28;20051;-68
2022/03/09 05:08:38;;;;;;;20.20;14.52;;;;;;;;;;5045494;28;20412;-68
2022/03/09 05:11:03;;;;;;;19.45;14.93;;;;;;;;;;5047641;28;20502;-67
2022/03/09 05:13:29;;;;;;;20.13;14.23;;;;;;;;;;5041942;28;20078;-67
2022/03/09 05:15:54;;;;;;;21.65;15.13;;;;;;;;;;5044197;28;21329;-67
2022/03/09 05:18:20;;;;;;;21.17;15.65;;;;;;;;;;5045531;28;20029;-68
2022/03/09 05:20:46;;;;;;;18.75;14.48;;;;;;;;;;5028537;28;20029;-67
2022/03/09 05:23:12;;;;;;;19.73;14.57;;;;;;;;;;5047026;28;20029;-66
2022/03/09 05:25:37;;;;;;;23.63;15.15;;;;;;;;;;5044268;28;20017;-67
2022/03/09 05:28:03;;;;;;;18.73;14.23;;;;;;;;;;5043346;28;20103;-68
2022/03/09 05:30:29;;;;;;;20.20;14.60;;;;;;;;;;5043613;28;20487;-67
2022/03/09 05:32:55;;;;;;;17.30;13.35;;;;;;;;;;5045450;28;20059;-67
2022/03/09 05:35:21;;;;;;;17.42;13.73;;;;;;;;;;5046355;28;20077;-67
2022/03/09 05:37:47;;;;;;;22.27;15.52;;;;;;;;;;5043622;28;20028;-68
2022/03/09 05:40:13;;;;;;;18.77;14.18;;;;;;;;;;5045772;28;20024;-68
2022/03/09 05:42:38;;;;;;;19.15;14.45;;;;;;;;;;5045196;28;20029;-68
2022/03/09 05:45:04;;;;;;;19.30;14.38;;;;;;;;;;5050090;28;20048;-68
2022/03/09 05:47:29;;;;;;;18.77;13.88;;;;;;;;;;5045963;28;20024;-68
2022/03/09 05:49:55;;;;;;;23.48;15.13;;;;;;;;;;5044628;28;20028;-68
2022/03/09 05:52:20;;;;;;;20.55;15.63;;;;;;;;;;5045549;28;20035;-68
2022/03/09 05:54:46;;;;;;;20.25;14.02;;;;;;;;;;5025498;28;20390;-68
2022/03/09 05:57:12;;;;;;;20.45;14.75;;;;;;;;;;5043159;28;20013;-67
2022/03/09 05:59:37;;;;;;;19.55;14.80;;;;;;;;;;5041771;28;20443;-67
2022/03/09 06:02:03;;;;;;;21.70;14.68;;;;;;;;;;5042973;28;20097;-67
2022/03/09 06:04:28;;;;;;;17.40;13.35;;;;;;;;;;5042755;28;20049;-66
2022/03/09 06:06:53;;;;;;;20.73;15.30;;;;;;;;;;5043920;28;20013;-67
2022/03/09 06:09:18;;;;;;;19.63;14.25;;;;;;;;;;5043991;28;20472;-68
2022/03/09 06:11:43;;;;;;;20.70;14.18;;;;;;;;;;5042000;28;20203;-68
2022/03/09 06:14:09;;;;;;;19.30;13.98;;;;;;;;;;5049637;28;20029;-68
2022/03/09 06:16:34;;;;;;;20.35;14.18;;;;;;;;;;5043330;28;20024;-68
2022/03/09 06:18:59;;;;;;;18.25;13.65;;;;;;;;;;5045067;28;20024;-68
2022/03/09 06:21:28;;;;;;;19.55;14.05;;;;;;;;;;5042013;28;20029;-68
2022/03/09 06:23:54;;;;;;;21.88;14.57;;;;;;;;;;5026087;28;20464;-67
2022/03/09 06:26:21;;;;;;;21.13;14.43;;;;;;;;;;5043988;28;20027;-68
2022/03/09 06:28:46;;;;;;;21.77;15.13;;;;;;;;;;5039505;28;20039;-68
2022/03/09 06:31:11;;;;;;;19.23;13.70;;;;;;;;;;5045535;28;20097;-68
2022/03/09 06:33:36;;;;;;;19.73;13.05;;;;;;;;;;5039908;28;20024;-67
2022/03/09 06:36:02;;;;;;;20.88;14.55;;;;;;;;;;5044565;28;20029;-68
2022/03/09 06:38:28;;;;;;;19.48;14.27;;;;;;;;;;5044412;28;20024;-67
2022/03/09 06:40:54;;;;;;;24.30;14.20;;;;;;;;;;5026645;28;20127;-67
2022/03/09 06:43:19;;;;;;;17.60;13.30;;;;;;;;;;5040593;28;20104;-67
2022/03/09 06:45:44;;;;;;;19.42;14.40;;;;;;;;;;5042613;28;20029;-67
2022/03/09 06:48:10;;;;;;;18.13;13.75;;;;;;;;;;5041417;28;20047;-67
2022/03/09 06:50:35;;;;;;;22.02;14.38;;;;;;;;;;5041893;28;20028;-68
2022/03/09 06:53:00;;;;;;;21.15;14.15;;;;;;;;;;5042356;28;20012;-68
2022/03/09 06:55:25;;;;;;;20.33;13.50;;;;;;;;;;5041383;28;20099;-68
2022/03/09 06:57:51;;;;;;;20.13;14.45;;;;;;;;;;5039549;28;20025;-68
2022/03/09 07:00:17;;;;;;;20.23;14.43;;;;;;;;;;5022508;28;20039;-68
2022/03/09 07:02:43;;;;;;;17.85;13.35;;;;;;;;;;5042549;28;20021;-68
2022/03/09 07:05:09;;;;;;;19.45;13.48;;;;;;;;;;5040970;28;20033;-68
2022/03/09 07:07:34;;;;;;;18.88;14.23;;;;;;;;;;5038988;28;20036;-67
2022/03/09 07:09:59;;;;;;;20.30;13.82;;;;;;;;;;5043406;28;20436;-68
2022/03/09 07:12:24;;;;;;;19.23;13.43;;;;;;;;;;5041667;28;20116;-68
2022/03/09 07:14:50;;;;;;;17.92;13.05;;;;;;;;;;5038594;28;20816;-67
2022/03/09 07:17:16;;;;;;;19.08;13.13;;;;;;;;;;5041565;28;20021;-67
2022/03/09 07:19:41;;;;;;;18.75;13.13;;;;;;;;;;5042757;28;20021;-69
2022/03/09 07:22:06;;;;;;;19.13;13.82;;;;;;;;;;5043190;28;20029;-67
2022/03/09 07:24:33;;;;;;;18.52;13.48;;;;;;;;;;5041599;28;20028;-67
2022/03/09 07:26:58;;;;;;;20.15;13.80;;;;;;;;;;5055316;28;20466;-67
2022/03/09 07:29:24;;;;;;;18.52;13.73;;;;;;;;;;5061072;28;20090;-68
2022/03/09 07:31:49;;;;;;;20.73;14.38;;;;;;;;;;5060977;28;20423;-68
2022/03/09 07:34:15;;;;;;;19.67;14.18;;;;;;;;;;5061887;28;20451;-68
2022/03/09 07:36:40;;;;;;;20.58;14.85;;;;;;;;;;5062523;28;20077;-68
2022/03/09 07:39:06;;;;;;;18.60;13.85;;;;;;;;;;5046540;28;20111;-68
2022/03/09 07:41:32;;;;;;;20.77;13.07;;;;;;;;;;5059702;28;20040;-68
2022/03/09 07:43:58;;;;;;;24.90;14.00;;;;;;;;;;5060300;28;20108;-68
2022/03/09 07:46:23;;;;;;;22.10;14.25;;;;;;;;;;5063793;28;20023;-67
2022/03/09 07:48:48;;;;;;;18.83;13.40;;;;;;;;;;5059971;28;20046;-68
2022/03/09 07:51:13;;;;;;;19.70;13.52;;;;;;;;;;5062525;28;20029;-67
2022/03/09 07:53:42;;;;;;;20.50;13.27;;;;;;;;;;5062063;28;20099;-68
2022/03/09 07:56:08;;;;;;;19.33;14.05;;;;;;;;;;5065241;28;20024;-68
2022/03/09 07:58:35;;;;;;;18.33;13.85;;;;;;;;;;5057409;28;20024;-68
2022/03/09 08:01:00;;;;;;;23.80;14.25;;;;;;;;;;5042965;28;20074;-68
2022/03/09 08:03:25;;;;;;;21.00;14.60;;;;;;;;;;5042599;28;20021;-67
2022/03/09 08:05:51;;;;;;;18.40;13.50;;;;;;;;;;5039624;28;20342;-67
2022/03/09 08:08:16;;;;;;;20.73;13.52;;;;;;;;;;5042625;28;20498;-67
2022/03/09 08:10:41;;;;;;;19.60;14.43;;;;;;;;;;5039975;28;20024;-68
2022/03/09 08:13:06;;;;;;;22.15;13.70;;;;;;;;;;5037331;28;20472;-68
2022/03/09 08:15:34;;;;;;;18.35;13.57;;;;;;;;;;5040676;28;20056;-68
2022/03/09 08:17:59;;;;;;;18.88;13.63;;;;;;;;;;5023909;28;20108;-67
2022/03/09 08:20:25;;;;;;;18.08;13.73;;;;;;;;;;5042902;28;20158;-68
2022/03/09 08:22:50;;;;;;;17.60;13.63;;;;;;;;;;5040025;28;20057;-68
2022/03/09 08:25:15;;;;;;;22.50;13.35;;;;;;;;;;5040192;28;20025;-67
2022/03/09 08:27:41;;;;;;;19.30;14.13;;;;;;;;;;5039525;28;20036;-68
2022/03/09 08:30:06;;;;;;;20.20;14.45;;;;;;;;;;5042031;28;20391;-68
2022/03/09 08:32:31;;;;;;;19.92;13.93;;;;;;;;;;5048267;28;20025;-68
2022/03/09 08:34:56;;;;;;;18.30;14.02;;;;;;;;;;5053025;28;20040;-68
2022/03/09 08:37:22;;;;;;;20.55;14.73;;;;;;;;;;5065984;28;20024;-68
2022/03/09 08:39:48;;;;;;;17.35;13.80;;;;;;;;;;5066778;28;20451;-67
2022/03/09 08:42:13;;;;;;;17.35;13.60;;;;;;;;;;5057497;28;20037;-69
2022/03/09 08:44:42;;;;;;;18.35;13.52;;;;;;;;;;5043601;28;20060;-67
2022/03/09 08:47:08;;;;;;;17.88;13.68;;;;;;;;;;5044557;28;20180;-67
2022/03/09 08:49:33;;;;;;;18.80;14.57;;;;;;;;;;5045627;28;20174;-64
2022/03/09 08:51:59;;;;;;;18.95;13.25;;;;;;;;;;5043316;28;20488;-64
2022/03/09 08:54:24;;;;;;;20.45;15.23;;;;;;;;;;5046536;28;20021;-64
2022/03/09 08:56:49;;;;;;;18.65;14.60;;;;;;;;;;5042716;28;20532;-67
2022/03/09 08:59:14;;;;;;;19.38;15.05;;;;;;;;;;5044380;28;20464;-65
2022/03/09 09:01:40;;;;;;;18.38;14.52;;;;;;;;;;5045169;28;20100;-65
2022/03/09 09:04:06;;;;;;;25.58;15.43;;;;;;;;;;5028998;28;20029;-66
2022/03/09 09:06:31;;;;;;;25.00;15.48;;;;;;;;;;5045906;28;20093;-67
2022/03/09 09:08:56;;;;;;;19.20;14.10;;;;;;;;;;5042928;28;20859;-65
2022/03/09 09:11:26;;;;;;;21.27;15.20;;;;;;;;;;5045072;28;20487;-66
2022/03/09 09:13:51;;;;;;;20.23;15.20;;;;;;;;;;5030766;28;20029;-66
2022/03/09 09:16:17;;;;;;;19.75;15.52;;;;;;;;;;5065376;28;20024;-65
2022/03/09 09:18:43;;;;;;;19.83;14.80;;;;;;;;;;5045222;28;20024;-65
2022/03/09 09:21:09;;;;;;;22.95;15.45;;;;;;;;;;5064368;28;20020;-65
2022/03/09 09:23:36;;;;;;;18.60;14.50;;;;;;;;;;5063837;28;20012;-65
2022/03/09 09:26:02;;;;;;;18.42;14.30;;;;;;;;;;5063011;28;20093;-65
2022/03/09 09:28:27;;;;;;;19.40;14.38;;;;;;;;;;5059516;28;20021;-65
2022/03/09 09:30:52;;;;;;;22.15;15.70;;;;;;;;;;5065040;28;20343;-66
2022/03/09 09:33:17;;;;;;;22.75;16.35;;;;;;;;;;5063576;28;20021;-65
2022/03/09 09:35:43;;;;;;;20.77;16.38;;;;;;;;;;5063667;28;20025;-66
2022/03/09 09:38:09;;;;;;;21.17;14.43;;;;;;;;;;5044566;28;20040;-65
2022/03/09 09:40:35;;;;;;;21.25;15.63;;;;;;;;;;5065188;28;20106;-65
2022/03/09 09:43:08;;;;;;;20.98;15.60;;;;;;;;;;5058416;28;20047;-65
2022/03/09 09:45:34;;;;;;;22.15;16.40;;;;;;;;;;5064907;28;20110;-64
2022/03/09 09:48:00;;;;;;;22.90;16.55;;;;;;;;;;5061832;28;20141;-64
2022/03/09 09:50:25;;;;;;;20.80;15.82;;;;;;;;;;5063842;28;20424;-65
2022/03/09 09:52:51;;;;;;;20.52;15.73;;;;;;;;;;5060751;28;20552;-65
2022/03/09 09:55:16;;;;;;;20.23;16.85;;;;;;;;;;5060402;28;20033;-65
2022/03/09 09:57:42;;;;;;;22.45;15.80;;;;;;;;;;5059574;28;20028;-63
2022/03/09 10:00:08;;;;;;;24.52;17.50;;;;;;;;;;5058075;28;20093;-65
2022/03/09 10:02:36;;;;;;;22.83;16.95;;;;;;;;;;5062471;28;20024;-64
2022/03/09 10:05:01;;;;;;;21.90;16.15;;;;;;;;;;5060374;28;20157;-64
2022/03/09 10:07:26;;;;;;;27.70;17.38;;;;;;;;;;5063539;28;20029;-65
2022/03/09 10:09:52;;;;;;;22.38;16.77;;;;;;;;;;5060104;28;20087;-64
2022/03/09 10:12:24;;;;;;;22.42;16.73;;;;;;;;;;5057022;28;20493;-65
2022/03/09 10:14:51;;;;;;;22.48;17.30;;;;;;;;;;5054485;28;20027;-66
2022/03/09 10:17:17;;;;;;;30.83;18.58;;;;;;;;;;5060836;28;20501;-65
2022/03/09 10:19:47;;;;;;;23.95;17.20;;;;;;;;;;5062785;28;20020;-65
2022/03/09 10:22:30;;;;;;;25.48;17.15;;;;;;;;;;5059449;28;20008;-65
2022/03/09 10:25:16;;;;;;;29.05;19.13;;;;;;;;;;5059925;28;20021;-65
2022/03/09 10:27:47;;;;;;;23.95;17.60;;;;;;;;;;5060931;28;20040;-65
2022/03/09 10:30:13;;;;;;;27.88;19.17;;;;;;;;;;5059197;28;20031;-66
2022/03/09 10:32:50;;;;;;;26.02;18.63;;;;;;;;;;5063019;28;20024;-64
2022/03/09 10:35:35;;;;;;;22.77;18.08;;;;;;;;;;5059451;28;20032;-64
2022/03/09 10:38:01;;;;;;;28.58;19.23;;;;;;;;;;5055120;28;20028;-65
2022/03/09 10:40:28;;;;;;;24.05;18.17;;;;;;;;;;5063074;28;20059;-65
2022/03/09 10:43:08;;;;;;;21.13;17.42;;;;;;;;;;5058511;28;20016;-66
2022/03/09 10:45:33;;;;;;;29.67;19.33;;;;;;;;;;5063104;28;20395;-65
2022/03/09 10:47:59;;;;;;;22.98;18.98;;;;;;;;;;5058277;28;20024;-65
2022/03/09 10:50:25;;;;;;;26.02;19.55;;;;;;;;;;5065581;28;20032;-65
2022/03/09 10:52:50;;;;;;;28.67;19.63;;;;;;;;;;5063075;28;20024;-64
2022/03/09 10:55:29;;;;;;;26.30;19.48;;;;;;;;;;5063244;28;20086;-65
2022/03/09 10:58:07;;;;;;;26.17;19.73;;;;;;;;;;5056689;28;20013;-66
2022/03/09 11:00:36;;;;;;;24.92;19.67;;;;;;;;;;5063823;28;20028;-64
2022/03/09 11:03:05;;;;;;;28.25;19.38;;;;;;;;;;5057963;28;20104;-65
2022/03/09 11:05:31;;;;;;;27.75;19.90;;;;;;;;;;5063524;28;20012;-66
2022/03/09 11:07:57;;;;;;;27.42;20.88;;;;;;;;;;5060384;28;20418;-66
2022/03/09 11:10:24;;;;;;;27.40;19.45;;;;;;;;;;5062579;28;20028;-65
2022/03/09 11:12:50;;;;;;;27.10;20.25;;;;;;;;;;5060662;28;20021;-66
2022/03/09 11:15:19;;;;;;;24.88;19.73;;;;;;;;;;5056857;28;20093;-65
2022/03/09 11:17:48;;;;;;;26.73;20.70;;;;;;;;;;5062845;28;20027;-65
2022/03/09 11:20:15;;;;;;;26.23;20.00;;;;;;;;;;5060865;28;20324;-64
2022/03/09 11:22:40;;;;;;;24.50;19.70;;;;;;;;;;5055408;28;20270;-65
2022/03/09 11:25:06;;;;;;;31.83;21.15;;;;;;;;;;5056842;28;20413;-64
2022/03/09 11:27:32;;;;;;;27.58;21.27;;;;;;;;;;5054798;28;20055;-64
2022/03/09 11:30:00;;;;;;;33.88;21.85;;;;;;;;;;5056247;28;20024;-65
2022/03/09 11:32:34;;;;;;;29.10;21.60;;;;;;;;;;5059357;28;20120;-64
2022/03/09 11:35:00;;;;;;;28.42;21.33;;;;;;;;;;5054767;28;20035;-65
2022/03/09 11:37:36;;;;;;;28.80;20.80;;;;;;;;;;5060595;28;20024;-66
2022/03/09 11:40:08;;;;;;;28.75;21.27;;;;;;;;;;5058329;28;20061;-64
2022/03/09 11:42:34;;;;;;;29.83;20.88;;;;;;;;;;5048542;28;20463;-64
2022/03/09 11:45:20;;;;;;;33.65;21.83;;;;;;;;;;5052514;28;20055;-65
2022/03/09 11:47:57;;;;;;;30.75;21.48;;;;;;;;;;5060064;28;20429;-65
2022/03/09 11:50:23;;;;;;;31.23;21.52;;;;;;;;;;5062514;28;20024;-66
2022/03/09 11:52:55;;;;;;;35.45;23.33;;;;;;;;;;5053705;28;20033;-65
2022/03/09 11:55:20;;;;;;;34.83;22.63;;;;;;;;;;5059402;28;20071;-66
2022/03/09 11:57:45;;;;;;;32.90;22.45;;;;;;;;;;5040730;28;20052;-65
2022/03/09 12:00:15;;;;;;;35.15;23.08;;;;;;;;;;5058854;28;20670;-65
2022/03/09 12:02:41;;;;;;;29.52;21.70;;;;;;;;;;5059842;28;20322;-64
2022/03/09 12:05:07;;;;;;;32.00;22.08;;;;;;;;;;5057886;28;20095;-64
2022/03/09 12:07:34;;;;;;;28.52;21.70;;;;;;;;;;5060064;28;20028;-69
2022/03/09 12:10:09;;;;;;;32.13;23.17;;;;;;;;;;5060393;28;20013;-71
2022/03/09 12:12:36;;;;;;;32.58;23.23;;;;;;;;;;5058006;28;20024;-66
2022/03/09 12:15:08;;;;;;;32.70;22.15;;;;;;;;;;5056782;28;20039;-66
2022/03/09 12:17:34;;;;;;;31.75;22.50;;;;;;;;;;5057412;28;20024;-65
2022/03/09 12:20:18;;;;;;;34.42;22.98;;;;;;;;;;5058904;28;20044;-67
2022/03/09 12:23:01;;;;;;;33.83;23.60;;;;;;;;;;5061140;28;20091;-66
2022/03/09 12:25:43;;;;;;;29.73;22.38;;;;;;;;;;5061846;28;20059;-67
2022/03/09 12:28:24;;;;;;;32.35;22.95;;;;;;;;;;5054694;28;20094;-67
2022/03/09 12:30:51;;;;;;;33.42;23.08;;;;;;;;;;5061919;28;20078;-65
2022/03/09 12:33:21;;;;;;;29.55;22.27;;;;;;;;;;5059783;28;20460;-66
2022/03/09 12:35:46;;;;;;;33.70;22.73;;;;;;;;;;5061190;28;20495;-66
2022/03/09 12:38:12;;;;;;;34.42;23.48;;;;;;;;;;5059441;28;20120;-66
2022/03/09 12:40:38;;;;;;;32.58;22.55;;;;;;;;;;5062399;28;20020;-66
2022/03/09 12:43:05;;;;;;;31.48;21.88;;;;;;;;;;5056508;28;20016;-67
2022/03/09 12:45:48;;;;;;;32.28;22.52;;;;;;;;;;5061928;28;20049;-67
2022/03/09 12:48:16;;;;;;;34.40;22.33;;;;;;;;;;5060028;28;20631;-67
2022/03/09 12:50:41;;;;;;;31.95;22.65;;;;;;;;;;5061422;28;20043;-67
2022/03/09 12:53:09;;;;;;;31.63;22.02;;;;;;;;;;5059830;28;20400;-67
2022/03/09 12:55:34;;;;;;;33.60;22.98;;;;;;;;;;5060038;28;20028;-67
2022/03/09 12:58:01;;;;;;;33.30;23.55;;;;;;;;;;5056717;28;20032;-67
2022/03/09 13:00:29;;;;;;;32.92;23.30;;;;;;;;;;5043020;28;20078;-68
2022/03/09 13:03:00;;;;;;;35.38;24.05;;;;;;;;;;5061579;28;20017;-66
2022/03/09 13:05:27;;;;;;;33.20;22.65;;;;;;;;;;5061679;28;20034;-67
2022/03/09 13:07:57;;;;;;;32.13;23.65;;;;;;;;;;5059441;28;20027;-67
2022/03/09 13:10:27;;;;;;;33.30;22.67;;;;;;;;;;5060960;28;20056;-66
2022/03/09 13:12:56;;;;;;;31.85;23.02;;;;;;;;;;5059361;28;20459;-66
2022/03/09 13:15:22;;;;;;;33.42;23.17;;;;;;;;;;5057705;28;20429;-66
2022/03/09 13:17:48;;;;;;;31.00;22.98;;;;;;;;;;5065685;28;20035;-65
2022/03/09 13:20:14;;;;;;;35.38;23.45;;;;;;;;;;5069022;28;20096;-66
2022/03/09 13:22:43;;;;;;;33.88;24.27;;;;;;;;;;5063778;28;20024;-67
2022/03/09 13:25:09;;;;;;;33.20;23.52;;;;;;;;;;5062951;28;20360;-66
2022/03/09 13:27:35;;;;;;;33.53;24.08;;;;;;;;;;5061542;28;20028;-66
2022/03/09 13:30:18;;;;;;;35.85;24.40;;;;;;;;;;5062909;28;20040;-67
2022/03/09 13:32:44;;;;;;;36.42;24.85;;;;;;;;;;5062216;28;20486;-67
2022/03/09 13:35:15;;;;;;;36.03;24.40;;;;;;;;;;5060815;28;20021;-67
2022/03/09 13:37:40;;;;;;;33.10;23.48;;;;;;;;;;5062008;28;20020;-67
2022/03/09 13:40:10;;;;;;;34.33;24.08;;;;;;;;;;5043417;28;20482;-67
2022/03/09 13:42:37;;;;;;;32.60;23.67;;;;;;;;;;5039775;28;20052;-67
2022/03/09 13:45:08;;;;;;;33.63;24.02;;;;;;;;;;5040056;28;20124;-68
2022/03/09 13:47:46;;;;;;;31.92;22.73;;;;;;;;;;5043718;28;20103;-69
2022/03/09 13:50:17;;;;;;;30.80;23.33;;;;;;;;;;5042178;28;20051;-69
2022/03/09 13:52:42;;;;;;;32.42;22.70;;;;;;;;;;5040345;28;20093;-66
2022/03/09 13:55:08;;;;;;;34.95;24.30;;;;;;;;;;5040295;28;20028;-66
2022/03/09 13:57:38;;;;;;;35.35;24.08;;;;;;;;;;5040046;28;20032;-66
2022/03/09 14:00:22;;;;;;;33.60;23.65;;;;;;;;;;5041515;28;20028;-66
2022/03/09 14:02:47;;;;;;;33.92;23.73;;;;;;;;;;5041620;28;20017;-65
2022/03/09 14:05:25;;;;;;;37.47;25.27;;;;;;;;;;5039750;28;20391;-66
2022/03/09 14:07:51;;;;;;;32.92;24.25;;;;;;;;;;5043302;28;20100;-67
2022/03/09 14:10:21;;;;;;;31.58;23.50;;;;;;;;;;5041319;28;20416;-66
2022/03/09 14:12:46;;;;;;;31.10;22.42;;;;;;;;;;5041629;28;20489;-65
2022/03/09 14:15:12;;;;;;;35.58;24.13;;;;;;;;;;5038879;28;20029;-66
2022/03/09 14:17:38;;;;;;;33.75;23.48;;;;;;;;;;5042787;28;20021;-66